Gifu, Gifu Air Field (RJNG)

NameGifu Air Field
CityGifu
CountryJapan
ICAORJNG
IATAQGU
Altitude39 m
CoordinatesGoogle Map
Live Air TrafficLiveATC.net
METARRJNG 162048Z 19003KT 150V210 9999 -SHRA SCT030 BKN045 02/00 Q1015 RMK 3CU030 7SC045 A3000
2019-01-16 20:48:00 Wind: South (190°) 1.54 m/s - Visibility: > 10000 m - Weather: Light Showers Rain - Temperature: 2 °C - Dew point: 0 °C - Humidity: 86.8% - Pressure: 1015 hPa
Statistics

The table below shows the detailed information of all flights to/from Gifu, Gifu Air Field (RJNG).